Time;durP1;ratioP1;P1;durP2;ratioP2;P2;SDS_P1;SDS_P2;PMS_P1;PMS_P2;Temp;Humidity;BMP_temperature;BMP_pressure;BME280_temperature;BME280_humidity;BME280_pressure;Samples;Min_cycle;Max_cycle;Signal;HPM_P1;HPM_P2
2021/08/31 00:02:08;;;;;;;3.85;2.50;;;;;;;16.52;63.10;98749.63;5099476;28;20137;-92
2021/08/31 00:04:35;;;;;;;3.35;2.40;;;;;;;16.40;63.86;98751.13;5100989;28;20033;-92
2021/08/31 00:07:01;;;;;;;4.10;2.60;;;;;;;16.28;64.28;98757.09;5096816;28;20481;-92
2021/08/31 00:09:27;;;;;;;4.75;2.80;;;;;;;16.30;64.76;98787.41;5106929;28;20036;-92
2021/08/31 00:11:53;;;;;;;5.82;2.80;;;;;;;16.11;65.39;98768.69;5102159;28;20043;-93
2021/08/31 00:14:20;;;;;;;4.30;2.55;;;;;;;16.13;65.58;98781.06;5107641;28;20075;-94
2021/08/31 00:16:46;;;;;;;4.45;2.67;;;;;;;16.09;66.29;98779.50;5098578;28;20051;-93
2021/08/31 00:19:12;;;;;;;6.97;2.80;;;;;;;16.01;66.76;98787.91;5100894;28;20119;-94
2021/08/31 00:21:38;;;;;;;4.63;3.00;;;;;;;15.92;67.11;98777.66;5110673;28;20456;-91
2021/08/31 00:24:04;;;;;;;5.15;3.28;;;;;;;15.84;67.29;98773.59;5101917;28;20032;-92
2021/08/31 00:26:30;;;;;;;4.72;3.08;;;;;;;15.76;67.21;98774.81;5102984;28;20027;-92
2021/08/31 00:28:57;;;;;;;5.70;3.08;;;;;;;15.86;67.25;98794.03;5100436;28;20099;-93
2021/08/31 00:31:24;;;;;;;4.53;2.85;;;;;;;15.71;67.30;98763.47;5095027;28;20024;-93
2021/08/31 00:33:50;;;;;;;8.10;3.00;;;;;;;15.76;67.20;98782.00;5101545;28;20047;-93
2021/08/31 00:36:15;;;;;;;5.47;3.25;;;;;;;15.65;67.67;98777.13;5096565;28;20123;-93
2021/08/31 00:38:41;;;;;;;5.50;3.50;;;;;;;15.59;68.24;98780.09;5097389;28;20040;-93
2021/08/31 00:41:07;;;;;;;8.18;3.45;;;;;;;15.54;68.77;98783.00;5102010;28;20031;-93
2021/08/31 00:43:43;;;;;;;5.35;3.10;;;;;;;15.57;68.56;98795.38;5101902;27;20040;-93
2021/08/31 00:46:09;;;;;;;7.25;3.28;;;;;;;15.48;69.15;98799.34;5101989;28;20036;-93
2021/08/31 00:48:37;;;;;;;5.18;2.95;;;;;;;15.36;68.97;98784.72;5097078;28;20055;-94
2021/08/31 00:51:02;;;;;;;4.53;3.10;;;;;;;15.37;68.89;98781.09;5093312;28;20043;-93
2021/08/31 00:53:28;;;;;;;6.93;3.38;;;;;;;15.34;69.06;98786.59;5104202;28;20036;-92
2021/08/31 00:55:54;;;;;;;5.55;3.28;;;;;;;15.15;69.51;98756.25;5103239;28;20059;-93
2021/08/31 00:58:20;;;;;;;4.93;3.17;;;;;;;15.17;69.58;98755.22;5097056;28;20421;-93
2021/08/31 01:00:46;;;;;;;6.82;3.40;;;;;;;15.20;70.32;98772.97;5102495;28;20040;-93
2021/08/31 01:03:12;;;;;;;4.65;3.10;;;;;;;15.12;69.96;98775.16;5106767;28;20481;-93
2021/08/31 01:05:39;;;;;;;4.15;2.83;;;;;;;15.03;70.16;98765.72;5103291;28;20028;-94
2021/08/31 01:08:06;;;;;;;6.15;2.55;;;;;;;15.13;69.90;98788.44;5094848;28;20053;-93
2021/08/31 01:10:32;;;;;;;5.00;3.20;;;;;;;15.09;70.06;98783.31;5102174;28;20073;-93
2021/08/31 01:12:58;;;;;;;5.13;3.20;;;;;;;15.03;69.75;98780.91;5103447;28;20048;-94
2021/08/31 01:15:25;;;;;;;5.78;2.90;;;;;;;15.02;69.62;98784.53;5098799;28;20067;-93
2021/08/31 01:17:51;;;;;;;5.50;3.15;;;;;;;14.91;70.02;98777.84;5103565;28;20122;-92
2021/08/31 01:20:19;;;;;;;5.80;3.30;;;;;;;15.00;69.93;98782.78;5103251;28;20059;-92
2021/08/31 01:22:46;;;;;;;5.13;3.13;;;;;;;14.95;69.78;98784.78;5101089;28;20043;-92
2021/08/31 01:25:14;;;;;;;5.65;3.30;;;;;;;14.90;70.08;98785.97;5109647;28;20709;-95
2021/08/31 01:27:40;;;;;;;5.18;3.22;;;;;;;14.90;70.55;98785.97;5108545;28;20044;-93
2021/08/31 01:30:07;;;;;;;4.55;3.10;;;;;;;14.90;70.97;98794.84;5109029;28;20131;-93
2021/08/31 01:32:32;;;;;;;5.38;3.08;;;;;;;14.79;71.04;98784.63;5096594;28;20048;-93
2021/08/31 01:34:58;;;;;;;5.70;3.05;;;;;;;14.76;71.35;98789.22;5103065;28;20040;-94
2021/08/31 01:37:24;;;;;;;5.18;3.00;;;;;;;14.76;71.33;98790.09;5101661;28;20058;-91
2021/08/31 01:39:50;;;;;;;5.32;3.20;;;;;;;14.67;71.56;98773.56;5100557;28;20408;-93
2021/08/31 01:42:17;;;;;;;6.80;3.55;;;;;;;14.77;71.24;98775.78;5104104;28;20040;-93
2021/08/31 01:44:44;;;;;;;5.17;3.33;;;;;;;14.85;71.27;98786.13;5099532;28;20444;-93
2021/08/31 01:47:11;;;;;;;6.13;3.05;;;;;;;14.68;70.93;98762.81;5103696;28;20033;-93
2021/08/31 01:49:37;;;;;;;4.93;3.28;;;;;;;14.73;71.21;98770.63;5100278;28;20052;-92
2021/08/31 01:52:06;;;;;;;4.43;2.90;;;;;;;14.82;70.89;98783.59;5108233;28;20036;-93
2021/08/31 01:54:32;;;;;;;4.05;2.92;;;;;;;14.70;70.88;98758.25;5104291;28;20040;-94
2021/08/31 01:57:00;;;;;;;4.90;3.20;;;;;;;14.75;70.83;98774.13;5105137;28;20098;-92
2021/08/31 01:59:28;;;;;;;5.65;3.20;;;;;;;14.67;70.99;98762.88;5105374;28;20039;-94
2021/08/31 02:01:54;;;;;;;4.50;3.20;;;;;;;14.66;71.47;98761.13;5111868;28;20044;-92
2021/08/31 02:04:20;;;;;;;8.65;4.28;;;;;;;14.70;71.25;98768.06;5104915;28;20040;-93
2021/08/31 02:06:48;;;;;;;4.63;3.33;;;;;;;14.69;70.99;98769.88;5110360;28;20036;-93
2021/08/31 02:09:14;;;;;;;4.97;3.03;;;;;;;14.70;71.22;98768.97;5114102;28;20043;-92
2021/08/31 02:11:40;;;;;;;4.53;2.97;;;;;;;14.75;71.16;98780.34;5104667;28;20102;-93
2021/08/31 02:14:08;;;;;;;5.20;3.00;;;;;;;14.75;71.29;98782.16;5104956;28;20060;-94
2021/08/31 02:16:38;;;;;;;5.47;2.90;;;;;;;14.68;71.02;98770.84;5103794;28;20036;-93
2021/08/31 02:19:04;;;;;;;4.30;2.97;;;;;;;14.80;71.10;98790.84;5109284;28;20035;-94
2021/08/31 02:21:31;;;;;;;4.05;3.00;;;;;;;14.72;71.08;98774.22;5109650;28;20137;-93
2021/08/31 02:23:57;;;;;;;7.30;3.20;;;;;;;14.60;71.35;98761.41;5108516;28;20032;-93
2021/08/31 02:26:24;;;;;;;4.18;2.72;;;;;;;14.51;71.57;98749.25;5103946;28;20093;-93
2021/08/31 02:28:50;;;;;;;6.55;3.17;;;;;;;14.53;71.92;98748.25;5092232;28;20094;-93
2021/08/31 02:31:16;;;;;;;5.38;2.60;;;;;;;14.60;72.01;98777.47;5108005;28;20028;-93
2021/08/31 02:33:43;;;;;;;6.50;2.70;;;;;;;14.55;72.13;98777.63;5106329;28;20089;-94
2021/08/31 02:36:09;;;;;;;8.50;2.90;;;;;;;14.54;72.53;98782.09;5112647;28;20089;-93
2021/08/31 02:38:38;;;;;;;4.70;2.95;;;;;;;14.44;72.55;98774.53;5109354;28;20448;-93
2021/08/31 02:41:03;;;;;;;4.60;2.92;;;;;;;14.34;73.00;98755.34;5105022;28;20044;-94
2021/08/31 02:43:29;;;;;;;5.60;3.13;;;;;;;14.38;72.90;98773.00;5107892;28;20040;-93
2021/08/31 02:45:56;;;;;;;5.43;3.03;;;;;;;14.44;72.75;98771.84;5101440;28;20104;-93
2021/08/31 02:48:22;;;;;;;7.05;3.17;;;;;;;14.42;72.69;98774.59;5099068;28;20047;-94
2021/08/31 02:50:50;;;;;;;5.35;3.28;;;;;;;14.48;72.68;98781.47;5104951;28;20059;-94
2021/08/31 02:53:15;;;;;;;4.75;3.05;;;;;;;14.32;73.08;98762.56;5106734;28;20048;-93
2021/08/31 02:55:41;;;;;;;4.30;2.97;;;;;;;14.41;73.15;98778.19;5106278;28;20393;-94
2021/08/31 02:58:07;;;;;;;11.60;3.50;;;;;;;14.28;73.10;98744.88;5103661;28;20101;-94
2021/08/31 03:00:36;;;;;;;6.70;3.42;;;;;;;14.47;72.97;98771.72;5099779;28;20488;-93
2021/08/31 03:03:02;;;;;;;4.72;2.85;;;;;;;14.23;73.17;98747.75;5099191;28;20130;-94
2021/08/31 03:05:27;;;;;;;5.35;3.42;;;;;;;14.34;73.23;98782.94;5109705;28;20059;-94
2021/08/31 03:07:57;;;;;;;6.07;2.70;;;;;;;14.22;73.65;98763.88;5103138;28;20036;-93
2021/08/31 03:10:23;;;;;;;4.95;2.85;;;;;;;14.30;73.96;98780.47;5106770;28;20046;-93
2021/08/31 03:12:50;;;;;;;6.20;3.25;;;;;;;14.24;74.21;98781.59;5104204;28;20117;-93
2021/08/31 03:15:16;;;;;;;5.10;2.90;;;;;;;14.26;74.13;98790.41;5090830;27;20040;-93
2021/08/31 03:17:41;;;;;;;5.32;3.30;;;;;;;14.11;74.19;98761.63;5086951;28;20044;-93
2021/08/31 03:20:08;;;;;;;5.60;3.10;;;;;;;14.20;74.24;98774.63;5080805;28;20085;-93
2021/08/31 03:22:34;;;;;;;5.13;3.13;;;;;;;14.23;74.97;98787.03;5077271;28;20405;-94
2021/08/31 03:25:02;;;;;;;5.43;2.97;;;;;;;14.16;75.55;98784.59;5087656;28;20155;-94
2021/08/31 03:27:28;;;;;;;5.07;2.97;;;;;;;14.09;75.21;98780.41;5090554;28;20040;-91
2021/08/31 03:29:56;;;;;;;5.47;3.05;;;;;;;14.18;75.52;98798.78;5092276;28;20108;-93
2021/08/31 03:32:22;;;;;;;5.22;3.45;;;;;;;14.07;75.51;98787.63;5087844;28;20028;-93
2021/08/31 03:34:48;;;;;;;6.32;3.22;;;;;;;14.15;75.71;98804.22;5083087;28;20093;-94
2021/08/31 03:37:14;;;;;;;5.90;3.78;;;;;;;14.05;76.63;98781.50;5086339;28;20095;-94
2021/08/31 03:39:40;;;;;;;20.77;5.45;;;;;;;14.06;76.85;98788.56;5092320;28;20035;-94
2021/08/31 03:42:07;;;;;;;5.18;3.67;;;;;;;14.03;76.85;98791.38;5083759;28;20054;-93
2021/08/31 03:44:33;;;;;;;9.38;3.50;;;;;;;13.91;76.70;98784.72;5086548;28;20052;-94
2021/08/31 03:46:59;;;;;;;5.80;3.60;;;;;;;13.90;76.32;98787.44;5087340;28;20081;-93
2021/08/31 03:49:25;;;;;;;5.60;3.42;;;;;;;13.88;77.11;98775.94;5087457;28;20048;-91
2021/08/31 03:51:50;;;;;;;7.35;3.42;;;;;;;13.88;76.52;98778.59;5084373;28;20041;-95
2021/08/31 03:54:16;;;;;;;5.47;3.65;;;;;;;13.97;76.95;98799.66;5087873;28;20040;-94
2021/08/31 03:56:42;;;;;;;5.53;3.72;;;;;;;13.93;76.93;98796.22;5093119;28;20481;-92
2021/08/31 03:59:10;;;;;;;5.63;4.05;;;;;;;13.84;77.50;98788.56;5091652;28;20100;-93
2021/08/31 04:01:36;;;;;;;6.55;3.85;;;;;;;13.81;77.24;98798.50;5093338;28;20052;-94
2021/08/31 04:04:01;;;;;;;5.10;3.55;;;;;;;13.86;77.57;98812.59;5078860;28;20110;-94
2021/08/31 04:06:27;;;;;;;8.45;3.53;;;;;;;13.75;77.79;98802.31;5081453;28;20089;-94
2021/08/31 04:08:54;;;;;;;5.60;3.53;;;;;;;13.69;78.25;98806.09;5077663;28;20393;-94
2021/08/31 04:11:19;;;;;;;5.07;3.80;;;;;;;13.63;78.59;98794.78;5080024;28;20090;-93
2021/08/31 04:13:45;;;;;;;5.97;4.05;;;;;;;13.60;78.46;98808.22;5088580;28;20451;-94
2021/08/31 04:16:15;;;;;;;6.50;3.70;;;;;;;13.52;78.68;98800.53;5103433;28;20042;-94
2021/08/31 04:18:41;;;;;;;5.55;3.50;;;;;;;13.64;78.63;98823.22;5096232;28;20036;-93
2021/08/31 04:21:07;;;;;;;5.22;3.50;;;;;;;13.70;78.95;98834.53;5106139;28;20039;-94
2021/08/31 04:23:36;;;;;;;5.50;3.73;;;;;;;13.49;78.55;98801.53;5099461;28;20127;-94
2021/08/31 04:26:01;;;;;;;6.20;3.60;;;;;;;13.52;78.58;98813.88;5099694;28;20118;-94
2021/08/31 04:28:27;;;;;;;5.28;3.78;;;;;;;13.56;78.74;98832.41;5104755;28;20062;-93
2021/08/31 04:30:53;;;;;;;6.38;4.05;;;;;;;13.54;78.57;98825.38;5103382;28;20037;-94
2021/08/31 04:33:20;;;;;;;5.60;3.90;;;;;;;13.50;79.12;98818.41;5104862;28;20496;-94
2021/08/31 04:35:46;;;;;;;5.45;3.60;;;;;;;13.51;79.49;98822.81;5102376;28;20068;-93
2021/08/31 04:38:13;;;;;;;6.93;3.38;;;;;;;13.56;78.73;98832.41;5102778;28;20454;-94
2021/08/31 04:40:39;;;;;;;10.77;3.80;;;;;;;13.44;78.76;98813.28;5104076;28;20062;-92
2021/08/31 04:43:05;;;;;;;5.47;3.75;;;;;;;13.49;78.75;98825.56;5096884;28;20572;-93
2021/08/31 04:45:31;;;;;;;5.38;3.50;;;;;;;13.50;79.09;98818.41;5109864;28;20504;-93
2021/08/31 04:47:57;;;;;;;10.75;4.05;;;;;;;13.43;78.96;98809.75;5103016;28;20054;-92
2021/08/31 04:50:24;;;;;;;8.13;4.20;;;;;;;13.48;78.98;98812.25;5107973;28;20050;-93
2021/08/31 04:52:50;;;;;;;6.60;3.95;;;;;;;13.59;79.30;98830.56;5103012;28;20515;-91
2021/08/31 04:55:19;;;;;;;5.70;3.38;;;;;;;13.69;79.38;98839.97;5104102;28;20051;-94
2021/08/31 04:57:45;;;;;;;5.80;3.90;;;;;;;13.60;79.35;98818.91;5104562;28;20498;-94
2021/08/31 05:00:11;;;;;;;6.45;3.67;;;;;;;13.73;79.08;98841.59;5100924;28;20082;-93
2021/08/31 05:02:37;;;;;;;5.43;3.80;;;;;;;13.67;78.92;98826.66;5099174;28;20036;-94
2021/08/31 05:05:04;;;;;;;5.53;3.80;;;;;;;13.69;78.69;98823.94;5101324;28;20124;-93
2021/08/31 05:07:31;;;;;;;5.95;3.53;;;;;;;13.68;78.82;98822.16;5108809;28;20542;-93
2021/08/31 05:09:57;;;;;;;7.15;3.80;;;;;;;13.71;79.18;98822.94;5105376;28;20040;-93
2021/08/31 05:12:23;;;;;;;7.45;3.72;;;;;;;13.80;78.80;98828.84;5105961;28;20122;-92
2021/08/31 05:14:49;;;;;;;6.68;4.00;;;;;;;13.87;78.95;98838.38;5113512;28;20429;-94
2021/08/31 05:17:15;;;;;;;5.68;4.00;;;;;;;13.90;78.89;98856.94;5110185;28;20072;-93
2021/08/31 05:19:42;;;;;;;8.63;4.15;;;;;;;13.83;79.00;98842.09;5104022;28;20052;-95
2021/08/31 05:22:10;;;;;;;9.60;4.35;;;;;;;13.95;79.32;98860.31;5115185;28;20044;-93
2021/08/31 05:24:38;;;;;;;6.63;4.63;;;;;;;14.01;79.13;98857.41;5102819;28;20047;-92
2021/08/31 05:27:04;;;;;;;6.43;4.90;;;;;;;13.98;78.93;98846.81;5104673;28;20058;-92
2021/08/31 05:29:30;;;;;;;8.38;4.75;;;;;;;14.03;78.71;98847.53;5110887;28;20036;-94
2021/08/31 05:31:56;;;;;;;11.38;5.00;;;;;;;14.13;78.62;98856.91;5104274;28;20043;-94
2021/08/31 05:34:22;;;;;;;7.25;4.90;;;;;;;14.16;78.43;98847.88;5110466;28;20086;-95
2021/08/31 05:36:49;;;;;;;8.95;5.00;;;;;;;14.37;78.02;98862.19;5109911;28;20594;-93
2021/08/31 05:39:15;;;;;;;9.30;4.63;;;;;;;14.27;78.10;98826.06;5104236;28;20197;-93
2021/08/31 05:41:42;;;;;;;8.10;4.90;;;;;;;14.50;77.67;98846.50;5100772;28;20115;-93
2021/08/31 05:44:09;;;;;;;7.40;5.13;;;;;;;14.66;77.26;98860.13;5108140;28;20393;-94
2021/08/31 05:46:36;;;;;;;11.13;5.25;;;;;;;14.64;76.63;98832.56;5101255;28;20127;-94
2021/08/31 05:49:02;;;;;;;10.02;4.40;;;;;;;14.82;75.77;98839.81;5112439;28;20465;-95
2021/08/31 05:51:28;;;;;;;7.65;4.65;;;;;;;15.07;75.30;98854.81;5097305;28;20052;-92
2021/08/31 05:53:54;;;;;;;7.32;4.82;;;;;;;15.22;74.45;98838.06;5101008;28;20048;-94
2021/08/31 05:56:20;;;;;;;5.88;4.60;;;;;;;15.36;74.00;98846.34;5101633;28;20054;-93
2021/08/31 05:58:50;;;;;;;8.45;4.20;;;;;;;15.49;72.72;98841.31;5102597;28;20126;-92
2021/08/31 06:01:16;;;;;;;8.15;4.68;;;;;;;15.69;72.36;98845.75;5103937;28;20043;-94
2021/08/31 06:03:41;;;;;;;6.00;4.35;;;;;;;15.87;71.67;98854.75;5103426;28;20406;-92
2021/08/31 06:06:07;;;;;;;7.05;4.50;;;;;;;16.02;71.41;98850.47;5097615;28;20137;-92
2021/08/31 06:08:33;;;;;;;7.20;3.85;;;;;;;16.27;69.52;98850.16;5105757;28;20065;-93
2021/08/31 06:11:00;;;;;;;7.75;4.32;;;;;;;16.46;69.06;98852.81;5097951;28;20040;-94
2021/08/31 06:13:27;;;;;;;6.53;3.60;;;;;;;16.78;67.82;98861.91;5101887;28;20516;-94
2021/08/31 06:15:54;;;;;;;6.32;3.40;;;;;;;16.92;65.95;98850.50;5104865;28;20481;-93
2021/08/31 06:18:20;;;;;;;5.30;3.58;;;;;;;17.07;65.64;98843.47;5100086;28;20036;-94
2021/08/31 06:20:46;;;;;;;5.07;3.63;;;;;;;17.22;64.09;98858.78;5104641;28;20097;-94
2021/08/31 06:23:12;;;;;;;5.97;3.72;;;;;;;17.15;64.19;98864.56;5104180;28;20040;-93
2021/08/31 06:25:38;;;;;;;4.95;3.67;;;;;;;17.07;63.96;98858.69;5101702;28;20036;-94
2021/08/31 06:28:05;;;;;;;8.85;3.97;;;;;;;17.19;64.01;98841.94;5104501;28;20135;-94
2021/08/31 06:30:31;;;;;;;5.75;3.70;;;;;;;17.19;64.15;98848.19;5101231;28;20122;-94
2021/08/31 06:33:01;;;;;;;6.25;4.32;;;;;;;17.21;63.33;98821.25;5099922;28;20131;-93
2021/08/31 06:35:29;;;;;;;6.72;4.25;;;;;;;17.37;63.54;98834.72;5096972;28;20035;-95
2021/08/31 06:37:58;;;;;;;5.38;3.85;;;;;;;17.45;62.42;98837.88;5105046;28;20580;-93
2021/08/31 06:40:24;;;;;;;6.18;3.67;;;;;;;17.32;63.47;98823.34;5100302;28;20070;-94
2021/08/31 06:42:50;;;;;;;8.45;4.38;;;;;;;17.26;62.92;98840.66;5105177;28;20123;-93
2021/08/31 06:45:16;;;;;;;7.93;3.60;;;;;;;17.54;61.80;98845.41;5101290;28;20052;-91
2021/08/31 06:47:42;;;;;;;6.88;3.80;;;;;;;17.64;61.55;98848.50;5097907;28;20056;-94
2021/08/31 06:53:07;;;;;;;9.10;3.92;;;;;;;18.17;60.29;98851.84;5183521;27;20363;-93
2021/08/31 06:55:33;;;;;;;5.10;3.22;;;;;;;18.15;60.00;98826.84;5148910;27;20047;-94
2021/08/31 06:58:00;;;;;;;5.72;3.17;;;;;;;18.37;59.48;98826.50;5140963;27;20045;-94
2021/08/31 07:00:29;;;;;;;4.88;3.47;;;;;;;18.47;57.85;98833.94;5144590;27;20467;-95
2021/08/31 07:02:55;;;;;;;5.55;3.40;;;;;;;18.81;58.18;98839.22;5147196;27;20092;-93
2021/08/31 07:05:21;;;;;;;6.82;3.45;;;;;;;18.87;58.14;98825.38;5146723;27;20047;-93
2021/08/31 07:07:47;;;;;;;4.60;3.13;;;;;;;19.14;57.84;98846.22;5150771;27;20890;-93
2021/08/31 07:10:14;;;;;;;6.88;3.67;;;;;;;19.33;55.65;98837.88;5145086;27;20058;-94
2021/08/31 07:12:40;;;;;;;5.65;3.60;;;;;;;19.60;55.94;98846.06;5149643;27;20043;-95
2021/08/31 07:15:09;;;;;;;5.43;3.38;;;;;;;19.50;54.04;98843.94;5141481;27;20553;-94
2021/08/31 07:17:35;;;;;;;6.47;3.50;;;;;;;19.62;54.87;98839.59;5146531;27;20039;-94
2021/08/31 07:20:01;;;;;;;5.53;3.58;;;;;;;19.74;54.84;98847.94;5145400;27;20552;-93
2021/08/31 07:22:27;;;;;;;4.75;3.45;;;;;;;19.87;53.56;98852.44;5147004;27;20039;-94
2021/08/31 07:24:53;;;;;;;6.88;3.20;;;;;;;20.11;52.86;98854.53;5146456;27;21623;-92
2021/08/31 07:27:20;;;;;;;7.03;3.20;;;;;;;20.20;51.94;98840.41;5140504;27;20035;-93
2021/08/31 07:29:46;;;;;;;6.22;3.55;;;;;;;20.29;51.04;98839.81;5142477;27;20035;-93
2021/08/31 07:32:12;;;;;;;7.25;3.10;;;;;;;20.45;51.80;98836.97;5141270;27;20476;-93
2021/08/31 07:37:38;;;;;;;4.88;3.28;;;;;;;20.99;49.36;98838.78;5135138;27;20383;-93
2021/08/31 07:40:06;;;;;;;4.82;2.80;;;;;;;21.17;48.44;98839.34;5133782;27;20388;-94
2021/08/31 07:42:32;;;;;;;5.13;3.17;;;;;;;21.25;48.38;98850.50;5131892;28;20554;-94
2021/08/31 07:45:03;;;;;;;5.57;3.33;;;;;;;21.38;48.17;98845.06;5132679;27;20088;-94
2021/08/31 07:47:29;;;;;;;4.22;3.00;;;;;;;20.99;49.96;98849.59;5134120;27;20043;-95
2021/08/31 07:49:55;;;;;;;4.88;3.05;;;;;;;21.04;49.61;98847.44;5132825;27;20088;-94
2021/08/31 07:52:21;;;;;;;8.05;3.03;;;;;;;21.25;49.20;98838.78;5132081;27;20040;-95
2021/08/31 07:54:48;;;;;;;5.53;2.90;;;;;;;21.60;48.69;98855.31;5132219;27;20071;-94
2021/08/31 07:57:15;;;;;;;5.85;3.17;;;;;;;21.77;47.87;98845.94;5131758;27;20059;-93
2021/08/31 07:59:41;;;;;;;3.60;2.67;;;;;;;21.89;47.29;98850.50;5131737;27;20152;-94
2021/08/31 08:02:07;;;;;;;5.07;3.05;;;;;;;21.85;46.06;98829.19;5130956;27;20087;-95
2021/08/31 08:04:33;;;;;;;5.68;3.33;;;;;;;22.12;47.31;98856.06;5131586;27;20311;-92
2021/08/31 08:07:00;;;;;;;4.60;2.92;;;;;;;22.25;47.23;98850.66;5131805;27;20055;-96
2021/08/31 08:09:26;;;;;;;6.95;2.90;;;;;;;22.39;46.35;98857.78;5131021;27;20040;-95
2021/08/31 08:11:53;;;;;;;5.28;3.15;;;;;;;22.45;46.06;98841.06;5131700;27;20053;-94
2021/08/31 08:14:19;;;;;;;8.57;4.72;;;;;;;22.58;45.15;98851.84;5131590;27;20460;-93
2021/08/31 08:16:45;;;;;;;6.38;3.40;;;;;;;22.57;44.94;98840.13;5130206;27;20031;-96
2021/08/31 08:19:10;;;;;;;4.50;3.22;;;;;;;22.71;44.79;98861.63;5131614;27;20044;-94
2021/08/31 08:21:37;;;;;;;5.72;3.20;;;;;;;22.84;43.88;98853.44;5131711;27;20059;-94
2021/08/31 08:24:03;;;;;;;5.88;2.90;;;;;;;22.85;44.19;98859.72;5131055;27;20043;-93
2021/08/31 08:26:29;;;;;;;5.28;2.67;;;;;;;22.83;43.70;98848.13;5132445;27;20052;-95
2021/08/31 08:28:57;;;;;;;6.78;2.92;;;;;;;22.83;43.75;98842.69;5132895;27;20126;-95
2021/08/31 08:31:23;;;;;;;6.10;3.25;;;;;;;22.96;43.57;98857.06;5131130;28;20047;-92
2021/08/31 08:33:49;;;;;;;9.38;3.40;;;;;;;23.07;43.54;98850.84;5133950;27;20035;-91
2021/08/31 08:36:15;;;;;;;5.95;2.97;;;;;;;23.19;43.16;98840.91;5129541;27;20070;-95
2021/08/31 08:38:41;;;;;;;5.85;3.05;;;;;;;23.29;42.94;98859.06;5132795;27;20114;-95
2021/08/31 08:41:07;;;;;;;6.60;4.05;;;;;;;23.37;43.41;98831.28;5133326;27;20074;-95
2021/08/31 08:43:33;;;;;;;5.68;3.08;;;;;;;23.52;43.01;98848.22;5133021;27;20092;-96
2021/08/31 08:46:05;;;;;;;5.15;3.08;;;;;;;23.71;43.05;98862.06;5134146;27;20101;-96
2021/08/31 08:48:31;;;;;;;5.20;3.78;;;;;;;23.75;42.69;98836.44;5120742;27;20039;-95
2021/08/31 08:51:00;;;;;;;5.00;2.92;;;;;;;23.93;42.21;98844.94;5117777;28;20483;-95
2021/08/31 08:53:27;;;;;;;4.68;2.92;;;;;;;23.89;41.99;98827.16;5118849;28;20182;-96
2021/08/31 08:55:58;;;;;;;7.55;3.33;;;;;;;24.18;41.68;98845.63;5120209;28;20057;-96
2021/08/31 08:58:24;;;;;;;6.10;2.95;;;;;;;24.16;41.45;98837.63;5120269;28;20048;-95
2021/08/31 09:00:53;;;;;;;5.72;3.08;;;;;;;24.40;41.78;98850.19;5118201;28;20556;-95
2021/08/31 09:03:22;;;;;;;5.75;2.80;;;;;;;24.34;40.66;98826.22;5118908;28;20600;-96
2021/08/31 09:05:51;;;;;;;5.13;3.00;;;;;;;24.54;40.95;98846.34;5118265;28;20032;-95
2021/08/31 09:08:16;;;;;;;4.97;3.10;;;;;;;23.98;41.22;98850.00;5118650;28;20051;-96
2021/08/31 09:10:45;;;;;;;4.85;2.70;;;;;;;24.36;41.29;98851.44;5119124;28;20089;-95
2021/08/31 09:13:11;;;;;;;;;;;;;;;24.55;39.79;98842.66;5120432;28;20103;-95
2021/08/31 09:15:38;;;;;;;4.82;3.08;;;;;;;24.64;40.46;98827.41;5119401;28;19966;-95
2021/08/31 09:18:16;;;;;;;4.63;2.78;;;;;;;24.80;39.59;98822.41;5119713;28;20131;-95
2021/08/31 09:20:57;;;;;;;4.93;2.67;;;;;;;24.64;39.20;98809.25;5121878;28;20048;-94
2021/08/31 09:23:25;;;;;;;4.60;2.80;;;;;;;24.83;39.27;98830.31;5118503;28;20043;-94
2021/08/31 09:25:54;;;;;;;5.47;3.30;;;;;;;24.93;38.98;98833.94;5118911;28;20105;-94
2021/08/31 09:28:22;;;;;;;4.50;2.63;;;;;;;24.32;39.75;98831.78;5119207;28;20114;-96
2021/08/31 09:31:00;;;;;;;4.82;3.10;;;;;;;24.12;42.01;98840.72;5118023;28;20032;-96
2021/08/31 09:33:29;;;;;;;3.72;2.90;;;;;;;24.51;40.15;98822.16;5117318;28;20043;-94
2021/08/31 09:36:01;;;;;;;;;;;;;;;24.95;39.65;98847.44;5117537;28;20047;-95
2021/08/31 09:38:42;;;;;;;5.47;3.13;;;;;;;24.74;38.28;98840.09;5120096;27;19923;-95
2021/08/31 09:41:08;;;;;;;4.93;3.22;;;;;;;24.38;38.98;98830.44;5117577;28;20048;-92
2021/08/31 09:43:34;;;;;;;5.03;2.83;;;;;;;24.36;39.08;98822.41;5117947;28;20100;-94
2021/08/31 09:45:59;;;;;;;5.03;2.88;;;;;;;24.17;39.36;98817.63;5120122;28;20028;-95
2021/08/31 09:48:25;;;;;;;4.30;2.90;;;;;;;24.64;39.26;98816.53;5117777;28;20419;-94
2021/08/31 09:50:53;;;;;;;5.15;3.10;;;;;;;25.03;36.33;98834.03;5117373;28;20036;-95
2021/08/31 09:53:23;;;;;;;4.97;3.00;;;;;;;25.00;36.40;98834.28;5117014;28;20043;-95
2021/08/31 09:55:51;;;;;;;5.65;2.65;;;;;;;24.86;38.01;98816.44;5117777;28;20388;-93
2021/08/31 09:58:20;;;;;;;4.68;2.90;;;;;;;25.14;35.39;98825.81;5118031;28;20535;-95
2021/08/31 10:00:48;;;;;;;5.57;2.97;;;;;;;25.22;36.30;98800.66;5120349;28;20051;-95
2021/08/31 10:03:14;;;;;;;5.75;2.97;;;;;;;25.54;36.07;98807.88;5116850;28;20157;-94
2021/08/31 10:05:42;;;;;;;4.68;2.90;;;;;;;25.56;35.31;98814.06;5114922;28;20043;-95
2021/08/31 10:08:09;;;;;;;5.68;2.72;;;;;;;25.74;35.41;98809.72;5117415;27;20069;-94
2021/08/31 10:10:38;;;;;;;4.55;2.78;;;;;;;25.69;34.05;98802.94;5119305;28;20064;-94
2021/08/31 10:13:08;;;;;;;6.13;3.03;;;;;;;25.79;33.75;98791.09;5118511;28;20051;-94
2021/08/31 10:18:34;;;;;;;5.28;2.83;;;;;;;25.90;35.24;98803.78;5133118;27;20382;-93
2021/08/31 10:21:04;;;;;;;6.03;3.10;;;;;;;25.89;33.97;98785.69;5134946;28;20054;-96
2021/08/31 10:23:32;;;;;;;4.78;2.90;;;;;;;25.53;33.87;98789.84;5136900;28;20096;-93
2021/08/31 10:26:28;;;;;;;6.43;2.97;;;;;;;25.15;34.65;98796.72;5138501;28;20099;-95
2021/08/31 10:29:25;;;;;;;5.05;3.00;;;;;;;24.78;35.11;98794.47;5138090;28;20043;-92
2021/08/31 10:31:52;;;;;;;6.75;3.10;;;;;;;25.32;35.07;98781.69;5135023;28;20397;-92
2021/08/31 10:34:40;;;;;;;4.60;3.00;;;;;;;25.46;33.53;98775.91;5136291;27;20065;-95
2021/08/31 10:37:11;;;;;;;5.90;2.90;;;;;;;25.49;33.62;98791.94;5131546;27;20042;-94
2021/08/31 10:39:43;;;;;;;5.18;3.30;;;;;;;25.17;34.75;98781.13;5138021;27;20040;-95
2021/08/31 10:42:10;;;;;;;6.55;3.20;;;;;;;25.51;33.95;98776.34;5132544;28;20096;-94
2021/08/31 10:44:41;;;;;;;5.57;3.17;;;;;;;25.71;33.95;98760.09;5133291;28;20122;-95
2021/08/31 10:47:09;;;;;;;5.38;3.10;;;;;;;26.01;33.85;98779.13;5135845;28;20476;-93
2021/08/31 10:50:14;;;;;;;7.28;3.38;;;;;;;26.26;33.79;98779.59;5134551;28;20074;-94
2021/08/31 10:52:43;;;;;;;5.40;2.97;;;;;;;25.94;33.72;98769.81;5122505;27;20052;-95
2021/08/31 10:55:41;;;;;;;5.68;3.10;;;;;;;26.10;33.45;98765.69;5133791;28;20044;-95
2021/08/31 10:58:09;;;;;;;5.23;3.20;;;;;;;26.21;33.35;98747.31;5125329;28;20123;-94
2021/08/31 11:00:52;;;;;;;6.43;3.58;;;;;;;26.38;33.49;98753.09;5132435;28;20539;-95
2021/08/31 11:03:35;;;;;;;5.05;2.75;;;;;;;26.57;33.33;98755.00;5132730;28;20039;-93
2021/08/31 11:06:32;;;;;;;6.50;3.08;;;;;;;26.61;32.70;98760.03;5131745;28;20054;-95
2021/08/31 11:09:20;;;;;;;6.68;3.30;;;;;;;26.48;33.46;98748.53;5133578;28;20081;-96
2021/08/31 11:12:04;;;;;;;4.03;2.97;;;;;;;26.63;33.29;98763.47;5116820;28;20050;-95
2021/08/31 11:14:42;;;;;;;7.18;3.45;;;;;;;26.32;32.26;98753.66;5139786;28;20063;-94
2021/08/31 11:17:09;;;;;;;9.13;3.42;;;;;;;26.36;32.44;98755.97;5136795;28;20047;-94
2021/08/31 11:19:35;;;;;;;6.85;3.65;;;;;;;26.32;33.04;98751.78;5136376;27;20067;-94
2021/08/31 11:22:01;;;;;;;5.35;3.10;;;;;;;26.33;33.49;98747.22;5135907;28;20047;-95
2021/08/31 11:24:28;;;;;;;5.72;2.90;;;;;;;26.36;32.71;98736.00;5136285;28;20047;-94
2021/08/31 11:26:59;;;;;;;6.00;3.40;;;;;;;26.51;33.54;98750.09;5132868;28;20031;-95
2021/08/31 11:29:25;;;;;;;5.20;3.20;;;;;;;26.50;31.75;98721.09;5122915;28;20043;-93
2021/08/31 11:31:58;;;;;;;6.95;3.10;;;;;;;26.61;32.59;98740.94;5119944;28;20131;-94
2021/08/31 11:34:23;;;;;;;11.35;3.30;;;;;;;26.54;32.18;98725.25;5118168;28;20042;-94
2021/08/31 11:37:02;;;;;;;4.20;2.95;;;;;;;26.51;31.40;98748.22;5120217;28;20035;-95
2021/08/31 11:39:29;;;;;;;6.00;3.03;;;;;;;26.44;32.68;98723.38;5118399;27;20063;-92
2021/08/31 11:41:56;;;;;;;6.93;3.05;;;;;;;26.59;31.90;98729.31;5120078;28;20047;-93
2021/08/31 11:44:22;;;;;;;5.13;3.10;;;;;;;26.61;32.97;98721.84;5119522;28;20067;-94
2021/08/31 11:46:50;;;;;;;5.78;3.10;;;;;;;26.70;31.69;98735.63;5117625;28;20031;-93